createdAt,value
2019-05-28T00:01:52.827Z,6.90
2019-05-28T00:04:21.614Z,6.90
2019-05-28T00:06:50.459Z,6.90
2019-05-28T00:09:19.396Z,6.90
2019-05-28T00:11:48.096Z,6.90
2019-05-28T00:14:16.946Z,6.90
2019-05-28T00:16:45.788Z,6.90
2019-05-28T00:19:14.951Z,6.90
2019-05-28T00:21:43.745Z,6.90
2019-05-28T00:24:12.586Z,6.90
2019-05-28T00:26:41.403Z,6.90
2019-05-28T00:29:10.162Z,6.90
2019-05-28T00:31:38.970Z,6.90
2019-05-28T00:34:07.813Z,6.90
2019-05-28T00:36:36.785Z,6.90
2019-05-28T00:39:07.699Z,6.90
2019-05-28T00:41:36.517Z,6.90
2019-05-28T00:44:05.530Z,6.90
2019-05-28T00:46:34.374Z,7.00
2019-05-28T00:49:03.158Z,6.90
2019-05-28T00:51:32.265Z,6.90
2019-05-28T00:54:01.225Z,6.90
2019-05-28T00:56:30.441Z,6.90
2019-05-28T00:58:59.540Z,6.80
2019-05-28T01:01:28.291Z,6.90
2019-05-28T01:03:57.139Z,6.80
2019-05-28T01:06:25.977Z,6.80
2019-05-28T01:08:54.795Z,6.80
2019-05-28T01:11:25.414Z,6.80
2019-05-28T01:13:54.154Z,6.70
2019-05-28T01:16:22.874Z,6.70
2019-05-28T01:18:53.337Z,6.60
2019-05-28T01:21:22.112Z,6.60
2019-05-28T01:23:50.932Z,6.60
2019-05-28T01:26:19.774Z,6.60
2019-05-28T01:28:48.612Z,6.50
2019-05-28T01:31:17.412Z,6.60
2019-05-28T01:33:46.135Z,6.50
2019-05-28T01:36:15.106Z,6.40
2019-05-28T01:38:43.903Z,6.40
2019-05-28T01:41:12.785Z,6.40
2019-05-28T01:43:41.570Z,6.40
2019-05-28T01:46:13.014Z,6.50
2019-05-28T01:48:41.860Z,6.40
2019-05-28T01:51:10.665Z,6.40
2019-05-28T01:53:39.475Z,6.30
2019-05-28T01:56:08.299Z,6.30
2019-05-28T01:58:37.724Z,6.30
2019-05-28T02:01:12.636Z,6.20
2019-05-28T02:03:36.987Z,6.20
2019-05-28T02:06:05.987Z,6.20
2019-05-28T02:08:34.829Z,6.20
2019-05-28T02:11:03.681Z,6.20
2019-05-28T02:13:32.467Z,6.10
2019-05-28T02:16:01.560Z,6.10
2019-05-28T02:18:30.422Z,6.10
2019-05-28T02:20:59.228Z,6.00
2019-05-28T02:23:28.048Z,6.00
2019-05-28T02:25:56.787Z,6.00
2019-05-28T02:28:25.585Z,6.00
2019-05-28T02:30:54.407Z,5.90
2019-05-28T02:33:23.317Z,5.90
2019-05-28T02:35:52.253Z,5.80
2019-05-28T02:38:21.047Z,5.70
2019-05-28T02:40:49.849Z,5.70
2019-05-28T02:43:18.605Z,5.70
2019-05-28T02:45:47.398Z,5.70
2019-05-28T02:48:16.494Z,5.70
2019-05-28T02:50:54.452Z,5.60
2019-05-28T02:53:23.491Z,5.60
2019-05-28T02:55:53.209Z,5.60
2019-05-28T02:58:23.632Z,5.50
2019-05-28T03:00:54.324Z,5.50
2019-05-28T03:03:24.771Z,5.50
2019-05-28T03:05:56.861Z,5.50
2019-05-28T03:08:27.920Z,5.60
2019-05-28T03:11:03.474Z,5.50
2019-05-28T03:13:27.919Z,5.50
2019-05-28T03:15:59.582Z,5.50
2019-05-28T03:18:30.029Z,5.50
2019-05-28T03:21:00.795Z,5.60
2019-05-28T03:23:31.733Z,5.60
2019-05-28T03:26:00.576Z,5.60
2019-05-28T03:28:29.420Z,5.60
2019-05-28T03:30:58.333Z,5.70
2019-05-28T03:33:27.543Z,5.60
2019-05-28T03:35:58.046Z,5.70
2019-05-28T03:38:27.636Z,5.70
2019-05-28T03:40:56.399Z,5.70
2019-05-28T03:43:25.198Z,5.80
2019-05-28T03:45:54.059Z,5.70
2019-05-28T03:48:23.226Z,5.80
2019-05-28T03:50:52.031Z,5.80
2019-05-28T03:53:20.795Z,5.80
2019-05-28T03:55:49.567Z,5.80
2019-05-28T03:58:18.685Z,5.90
2019-05-28T04:00:47.539Z,6.00
2019-05-28T04:03:16.378Z,5.90
2019-05-28T04:05:45.177Z,5.90
2019-05-28T04:08:14.146Z,5.90
2019-05-28T04:10:43.114Z,5.90
2019-05-28T04:13:11.909Z,5.90
2019-05-28T04:15:41.004Z,6.00
2019-05-28T04:18:10.077Z,5.90
2019-05-28T04:20:39.402Z,5.90
2019-05-28T04:23:15.768Z,6.00
2019-05-28T04:25:45.966Z,6.00
2019-05-28T04:28:14.797Z,6.00
2019-05-28T04:30:44.387Z,6.00
2019-05-28T04:33:13.195Z,6.00
2019-05-28T04:35:42.031Z,6.10
2019-05-28T04:38:10.875Z,6.10
2019-05-28T04:40:40.026Z,6.10
2019-05-28T04:43:09.242Z,6.10
2019-05-28T04:45:38.204Z,6.00
2019-05-28T04:48:07.028Z,5.90
2019-05-28T04:50:35.835Z,5.90
2019-05-28T04:53:05.113Z,5.80
2019-05-28T04:55:34.002Z,5.70
2019-05-28T04:58:02.854Z,5.70
2019-05-28T05:00:31.651Z,5.60
2019-05-28T05:03:00.962Z,5.60
2019-05-28T05:05:29.978Z,5.50
2019-05-28T05:07:58.790Z,5.50
2019-05-28T05:10:27.524Z,5.50
2019-05-28T05:12:56.370Z,5.60
2019-05-28T05:15:27.991Z,5.80
2019-05-28T05:17:59.683Z,5.80
2019-05-28T05:20:28.489Z,6.00
2019-05-28T05:22:57.283Z,6.10
2019-05-28T05:25:27.433Z,6.30
2019-05-28T05:27:56.289Z,6.60
2019-05-28T05:30:25.501Z,6.80
2019-05-28T05:32:54.299Z,7.00
2019-05-28T05:35:23.761Z,7.30
2019-05-28T05:37:52.557Z,7.60
2019-05-28T05:40:21.576Z,7.70
2019-05-28T05:42:50.401Z,7.90
2019-05-28T05:45:22.114Z,7.90
2019-05-28T05:47:51.037Z,7.50
2019-05-28T05:50:20.432Z,7.20
2019-05-28T05:52:49.284Z,7.00
2019-05-28T05:55:18.227Z,6.80
2019-05-28T05:57:47.073Z,6.70
2019-05-28T06:00:16.456Z,6.60
2019-05-28T06:02:45.335Z,6.60
2019-05-28T06:05:14.587Z,6.60
2019-05-28T06:07:43.478Z,6.60
2019-05-28T06:10:12.784Z,6.50
2019-05-28T06:12:41.507Z,6.40
2019-05-28T06:15:10.430Z,6.50
2019-05-28T06:17:41.139Z,6.70
2019-05-28T06:20:10.395Z,7.00
2019-05-28T06:22:39.132Z,7.20
2019-05-28T06:25:08.860Z,7.30
2019-05-28T06:27:37.691Z,7.30
2019-05-28T06:30:08.001Z,7.20
2019-05-28T06:32:38.059Z,7.20
2019-05-28T06:35:08.506Z,7.40
2019-05-28T06:37:37.342Z,7.40
2019-05-28T06:40:07.939Z,7.40
2019-05-28T06:42:39.671Z,7.50
2019-05-28T06:45:12.536Z,7.60
2019-05-28T06:47:45.014Z,7.60
2019-05-28T06:50:13.126Z,7.50
2019-05-28T06:52:41.921Z,7.40
2019-05-28T06:55:11.322Z,7.20
2019-05-28T06:57:40.383Z,7.10
2019-05-28T07:00:09.772Z,7.10
2019-05-28T07:02:38.604Z,7.00
2019-05-28T07:05:29.870Z,7.00
2019-05-28T07:07:58.666Z,7.00
2019-05-28T07:10:27.523Z,6.90
2019-05-28T07:12:56.360Z,6.80
2019-05-28T07:15:25.159Z,6.80
2019-05-28T07:17:54.912Z,7.00
2019-05-28T07:20:23.717Z,7.30
2019-05-28T07:22:52.497Z,7.70
2019-05-28T07:25:21.346Z,8.00
2019-05-28T07:27:50.071Z,8.20
2019-05-28T07:30:19.016Z,8.40
2019-05-28T07:32:47.969Z,8.80
2019-05-28T07:35:17.655Z,9.00
2019-05-28T07:37:46.417Z,9.20
2019-05-28T07:40:30.196Z,9.50
2019-05-28T07:42:45.861Z,9.80
2019-05-28T07:45:15.672Z,9.60
2019-05-28T07:47:44.489Z,9.10
2019-05-28T07:50:15.456Z,8.70
2019-05-28T07:52:44.646Z,8.40
2019-05-28T07:55:13.548Z,8.30
2019-05-28T07:57:42.379Z,8.00
2019-05-28T08:00:11.475Z,7.60
2019-05-28T08:02:40.317Z,7.40
2019-05-28T08:05:09.957Z,7.20
2019-05-28T08:07:38.855Z,7.20
2019-05-28T08:10:08.660Z,7.60
2019-05-28T08:12:37.492Z,7.90
2019-05-28T08:15:06.626Z,8.10
2019-05-28T08:17:35.427Z,8.10
2019-05-28T08:20:05.437Z,8.20
2019-05-28T08:22:42.175Z,8.30
2019-05-28T08:25:23.683Z,8.60
2019-05-28T08:27:37.286Z,8.70
2019-05-28T08:30:12.198Z,8.80
2019-05-28T08:32:44.005Z,9.10
2019-05-28T08:35:12.792Z,9.20
2019-05-28T08:37:41.618Z,9.20
2019-05-28T08:40:10.940Z,9.30
2019-05-28T08:42:39.842Z,9.60
2019-05-28T08:45:08.889Z,9.50
2019-05-28T08:47:37.717Z,9.30
2019-05-28T08:50:07.106Z,8.90
2019-05-28T08:52:35.899Z,7.90
2019-05-28T08:55:06.400Z,7.10
2019-05-28T08:57:35.327Z,6.60
2019-05-28T09:00:09.027Z,5.90
2019-05-28T09:02:37.842Z,5.50
2019-05-28T09:05:24.745Z,5.40
2019-05-28T09:07:37.884Z,5.40
2019-05-28T09:10:08.442Z,5.50
2019-05-28T09:12:37.357Z,5.70
2019-05-28T09:15:07.144Z,5.90
2019-05-28T09:17:35.880Z,6.10
2019-05-28T09:20:06.771Z,6.30
2019-05-28T09:22:35.624Z,6.30
2019-05-28T09:25:25.151Z,6.40
2019-05-28T09:27:53.988Z,6.70
2019-05-28T09:30:22.986Z,6.90
2019-05-28T09:32:51.954Z,7.10
2019-05-28T09:35:20.793Z,7.40
2019-05-28T09:37:49.602Z,7.50
2019-05-28T09:40:19.172Z,7.60
2019-05-28T09:42:47.885Z,7.80
2019-05-28T09:45:22.942Z,7.80
2019-05-28T09:47:47.477Z,7.80
2019-05-28T09:50:29.893Z,8.00
2019-05-28T09:52:54.310Z,8.20
2019-05-28T09:55:18.290Z,8.30
2019-05-28T09:57:48.305Z,8.30
2019-05-28T10:00:22.784Z,8.40
2019-05-28T10:02:52.188Z,8.60
2019-05-28T10:05:24.800Z,8.50
2019-05-28T10:07:53.643Z,8.40
2019-05-28T10:10:23.770Z,8.50
2019-05-28T10:12:52.597Z,8.60
2019-05-28T10:15:21.681Z,8.60
2019-05-28T10:17:50.526Z,8.60
2019-05-28T10:20:20.116Z,8.60
2019-05-28T10:22:49.363Z,8.60
2019-05-28T10:25:18.357Z,8.60
2019-05-28T10:28:00.417Z,8.70
2019-05-28T10:30:19.321Z,8.80
2019-05-28T10:32:48.121Z,8.80
2019-05-28T10:35:18.937Z,8.90
2019-05-28T10:37:47.771Z,8.80
2019-05-28T10:40:17.306Z,8.80
2019-05-28T10:42:49.277Z,9.00
2019-05-28T10:45:18.849Z,9.00
2019-05-28T10:47:47.791Z,9.10
2019-05-28T10:50:16.980Z,8.80
2019-05-28T10:52:45.925Z,8.40
2019-05-28T10:55:16.000Z,8.40
2019-05-28T10:57:45.688Z,8.50
2019-05-28T11:00:16.499Z,8.60
2019-05-28T11:02:47.019Z,8.70
2019-05-28T11:05:17.658Z,8.80
2019-05-28T11:07:46.455Z,8.90
2019-05-28T11:10:23.666Z,9.00
2019-05-28T11:12:46.612Z,9.10
2019-05-28T11:15:23.044Z,9.20
2019-05-28T11:17:50.150Z,9.20
2019-05-28T11:20:19.651Z,9.40
2019-05-28T11:22:48.493Z,9.60
2019-05-28T11:25:18.757Z,9.60
2019-05-28T11:27:47.913Z,9.60
2019-05-28T11:30:17.505Z,9.60
2019-05-28T11:32:46.679Z,9.30
2019-05-28T11:35:17.191Z,9.10
2019-05-28T11:37:46.033Z,9.10
2019-05-28T11:40:17.237Z,9.20
2019-05-28T11:42:47.255Z,9.30
2019-05-28T11:45:17.847Z,9.30
2019-05-28T11:47:50.703Z,9.10
2019-05-28T11:50:18.235Z,9.10
2019-05-28T11:52:47.754Z,9.40
2019-05-28T11:55:18.492Z,9.50
2019-05-28T11:57:47.288Z,9.60
2019-05-28T12:00:18.384Z,9.60
2019-05-28T12:02:47.253Z,9.50
2019-05-28T12:05:16.359Z,9.60
2019-05-28T12:07:45.211Z,9.70
2019-05-28T12:10:15.667Z,9.70
2019-05-28T12:12:44.518Z,9.70
2019-05-28T12:15:15.318Z,9.80
2019-05-28T12:17:45.616Z,9.70
2019-05-28T12:20:16.102Z,9.60
2019-05-28T12:22:46.519Z,9.80
2019-05-28T12:25:17.183Z,10.10
2019-05-28T12:27:48.924Z,10.20
2019-05-28T12:30:18.887Z,10.10
2019-05-28T12:32:47.880Z,10.10
2019-05-28T12:35:28.084Z,10.10
2019-05-28T12:37:50.732Z,10.00
2019-05-28T12:40:21.567Z,10.00
2019-05-28T12:42:50.360Z,10.00
2019-05-28T12:45:34.334Z,10.30
2019-05-28T12:48:07.229Z,10.50
2019-05-28T12:50:21.475Z,10.50
2019-05-28T12:52:51.665Z,10.40
2019-05-28T12:55:22.836Z,10.30
2019-05-28T12:57:52.749Z,10.40
2019-05-28T13:00:43.801Z,10.30
2019-05-28T13:03:13.138Z,10.00
2019-05-28T13:05:41.977Z,9.50
2019-05-28T13:08:10.942Z,9.40
2019-05-28T13:10:39.934Z,9.20
2019-05-28T13:13:10.040Z,9.40
2019-05-28T13:15:42.692Z,9.30
2019-05-28T13:18:13.996Z,9.20
2019-05-28T13:20:43.226Z,9.50
2019-05-28T13:23:12.112Z,9.70
2019-05-28T13:25:45.089Z,9.80
2019-05-28T13:28:11.530Z,9.60
2019-05-28T13:30:41.703Z,9.70
2019-05-28T13:33:10.615Z,9.90
2019-05-28T13:35:42.200Z,10.10
2019-05-28T13:38:26.613Z,10.00
2019-05-28T13:40:45.644Z,10.00
2019-05-28T13:43:14.700Z,10.10
2019-05-28T13:45:44.768Z,10.20
2019-05-28T13:48:14.062Z,10.40
2019-05-28T13:50:42.989Z,10.40
2019-05-28T13:53:11.857Z,10.50
2019-05-28T13:55:40.765Z,10.60
2019-05-28T13:58:11.521Z,10.80
2019-05-28T14:00:42.300Z,11.00
2019-05-28T14:03:14.560Z,11.00
2019-05-28T14:05:43.345Z,11.00
2019-05-28T14:08:12.240Z,10.80
2019-05-28T14:10:42.531Z,10.70
2019-05-28T14:13:11.590Z,10.60
2019-05-28T14:15:41.921Z,10.40
2019-05-28T14:18:11.366Z,10.50
2019-05-28T14:20:40.233Z,10.50
2019-05-28T14:23:10.241Z,10.80
2019-05-28T14:25:40.058Z,11.00
2019-05-28T14:28:11.625Z,11.00
2019-05-28T14:30:56.442Z,11.20
2019-05-28T14:33:11.625Z,11.50
2019-05-28T14:35:40.815Z,11.50
2019-05-28T14:38:09.649Z,11.40
2019-05-28T14:40:38.594Z,11.60
2019-05-28T14:43:07.722Z,11.50
2019-05-28T14:45:36.544Z,11.60
2019-05-28T14:48:05.377Z,11.60
2019-05-28T14:50:37.143Z,11.50
2019-05-28T14:53:05.925Z,11.60
2019-05-28T14:55:34.765Z,11.60
2019-05-28T14:58:05.581Z,11.70
2019-05-28T15:00:34.090Z,11.90
2019-05-28T15:03:02.814Z,12.00
2019-05-28T15:05:31.738Z,12.00
2019-05-28T15:08:00.551Z,12.00
2019-05-28T15:10:29.490Z,12.00
2019-05-28T15:12:58.803Z,12.00
2019-05-28T15:15:35.839Z,11.80
2019-05-28T15:17:58.023Z,11.60
2019-05-28T15:20:27.265Z,11.60
2019-05-28T15:22:56.079Z,11.30
2019-05-28T15:25:24.906Z,11.20
2019-05-28T15:27:53.758Z,11.10
2019-05-28T15:30:24.199Z,11.20
2019-05-28T15:32:53.016Z,11.10
2019-05-28T15:35:22.001Z,11.10
2019-05-28T15:37:50.865Z,11.00
2019-05-28T15:40:21.942Z,11.20
2019-05-28T15:43:04.981Z,11.30
2019-05-28T15:45:21.591Z,11.30
2019-05-28T15:47:50.391Z,11.20
2019-05-28T15:50:19.742Z,11.30
2019-05-28T15:52:48.883Z,11.20
2019-05-28T15:55:17.730Z,11.40
2019-05-28T15:57:47.013Z,11.20
2019-05-28T16:00:23.716Z,10.90
2019-05-28T16:02:52.906Z,11.00
2019-05-28T16:05:21.891Z,11.20
2019-05-28T16:07:50.667Z,11.20
2019-05-28T16:10:19.599Z,11.20
2019-05-28T16:12:48.472Z,11.50
2019-05-28T16:15:20.132Z,11.60
2019-05-28T16:17:48.975Z,11.50
2019-05-28T16:20:17.888Z,11.30
2019-05-28T16:22:47.987Z,11.40
2019-05-28T16:25:18.232Z,11.30
2019-05-28T16:27:47.091Z,11.30
2019-05-28T16:30:18.964Z,11.50
2019-05-28T16:32:47.735Z,11.60
2019-05-28T16:35:20.120Z,11.80
2019-05-28T16:37:50.492Z,11.90
2019-05-28T16:40:19.708Z,11.90
2019-05-28T16:42:48.685Z,11.60
2019-05-28T16:45:18.183Z,11.60
2019-05-28T16:47:47.853Z,11.80
2019-05-28T16:50:16.893Z,12.00
2019-05-28T16:52:45.907Z,12.10
2019-05-28T16:55:16.388Z,12.10
2019-05-28T16:57:45.603Z,12.30
2019-05-28T17:00:15.155Z,12.50
2019-05-28T17:02:43.964Z,12.10
2019-05-28T17:05:13.309Z,12.10
2019-05-28T17:07:42.504Z,12.30
2019-05-28T17:10:30.781Z,12.60
2019-05-28T17:12:45.497Z,12.40
2019-05-28T17:15:17.502Z,12.20
2019-05-28T17:17:47.028Z,12.40
2019-05-28T17:20:16.687Z,12.40
2019-05-28T17:22:45.482Z,12.00
2019-05-28T17:25:14.599Z,11.90
2019-05-28T17:27:43.451Z,11.70
2019-05-28T17:30:19.142Z,11.80
2019-05-28T17:32:43.046Z,11.50
2019-05-28T17:35:12.695Z,11.60
2019-05-28T17:37:41.568Z,11.80
2019-05-28T17:40:12.188Z,11.90
2019-05-28T17:42:40.994Z,11.90
2019-05-28T17:45:10.231Z,11.90
2019-05-28T17:47:43.649Z,12.00
2019-05-28T17:50:12.539Z,11.80
2019-05-28T17:52:41.521Z,11.80
2019-05-28T17:55:10.464Z,11.90
2019-05-28T17:57:39.275Z,11.70
2019-05-28T18:00:09.039Z,11.60
2019-05-28T18:02:37.841Z,11.60
2019-05-28T18:05:07.149Z,11.60
2019-05-28T18:07:35.994Z,11.60
2019-05-28T18:10:10.126Z,11.50
2019-05-28T18:12:39.320Z,11.20
2019-05-28T18:15:09.751Z,11.20
2019-05-28T18:17:38.619Z,11.10
2019-05-28T18:20:09.243Z,11.00
2019-05-28T18:22:38.022Z,11.10
2019-05-28T18:25:08.064Z,11.20
2019-05-28T18:27:36.778Z,11.20
2019-05-28T18:30:10.340Z,11.20
2019-05-28T18:32:39.148Z,11.20
2019-05-28T18:35:09.148Z,11.50
2019-05-28T18:37:38.064Z,11.70
2019-05-28T18:40:09.882Z,11.60
2019-05-28T18:42:39.479Z,11.30
2019-05-28T18:45:09.225Z,11.10
2019-05-28T18:47:39.480Z,11.00
2019-05-28T18:50:08.757Z,11.10
2019-05-28T18:52:37.947Z,11.20
2019-05-28T18:55:07.544Z,11.30
2019-05-28T18:57:36.353Z,11.30
2019-05-28T19:00:09.334Z,11.30
2019-05-28T19:02:38.132Z,11.10
2019-05-28T19:05:10.320Z,11.00
2019-05-28T19:07:39.117Z,11.00
2019-05-28T19:10:08.564Z,11.10
2019-05-28T19:12:37.611Z,11.40
2019-05-28T19:15:09.107Z,11.40
2019-05-28T19:17:37.916Z,11.50
2019-05-28T19:20:08.167Z,11.60
2019-05-28T19:22:37.010Z,11.60
2019-05-28T19:25:08.569Z,11.40
2019-05-28T19:27:37.757Z,11.30
2019-05-28T19:30:07.949Z,11.30
2019-05-28T19:32:36.805Z,11.40
2019-05-28T19:35:07.946Z,11.30
2019-05-28T19:37:37.412Z,11.00
2019-05-28T19:40:07.323Z,10.80
2019-05-28T19:42:36.115Z,10.80
2019-05-28T19:45:07.052Z,10.90
2019-05-28T19:47:35.797Z,10.70
2019-05-28T19:50:06.350Z,10.60
2019-05-28T19:52:35.199Z,10.50
2019-05-28T19:55:05.350Z,10.50
2019-05-28T19:57:36.925Z,10.40
2019-05-28T20:00:12.586Z,10.40
2019-05-28T20:02:41.434Z,10.40
2019-05-28T20:05:15.145Z,10.40
2019-05-28T20:07:44.016Z,10.30
2019-05-28T20:10:13.153Z,10.30
2019-05-28T20:12:42.016Z,10.40
2019-05-28T20:15:12.584Z,10.20
2019-05-28T20:17:41.373Z,9.90
2019-05-28T20:20:12.394Z,9.70
2019-05-28T20:22:41.252Z,9.50
2019-05-28T20:25:10.545Z,9.20
2019-05-28T20:27:39.790Z,9.00
2019-05-28T20:30:10.080Z,8.90
2019-05-28T20:32:38.806Z,8.80
2019-05-28T20:35:08.099Z,8.70
2019-05-28T20:37:37.299Z,8.60
2019-05-28T20:40:08.052Z,8.60
2019-05-28T20:42:37.456Z,8.50
2019-05-28T20:45:08.753Z,8.50
2019-05-28T20:47:37.603Z,8.40
2019-05-28T20:50:11.788Z,8.30
2019-05-28T20:52:40.780Z,8.30
2019-05-28T20:55:09.986Z,8.30
2019-05-28T20:57:38.818Z,8.20
2019-05-28T21:00:09.742Z,8.20
2019-05-28T21:02:38.543Z,8.20
2019-05-28T21:05:10.840Z,8.10
2019-05-28T21:07:40.024Z,8.00
2019-05-28T21:10:09.159Z,7.90
2019-05-28T21:12:43.671Z,7.80
2019-05-28T21:15:09.543Z,7.70
2019-05-28T21:17:38.333Z,7.70
2019-05-28T21:20:08.912Z,7.70
2019-05-28T21:22:38.081Z,7.70
2019-05-28T21:25:08.203Z,7.60
2019-05-28T21:27:37.106Z,7.60
2019-05-28T21:30:07.111Z,7.50
2019-05-28T21:32:35.970Z,7.60
2019-05-28T21:35:06.386Z,7.60
2019-05-28T21:37:35.216Z,7.60
2019-05-28T21:40:05.360Z,7.60
2019-05-28T21:42:34.362Z,7.50
2019-05-28T21:45:03.268Z,7.40
2019-05-28T21:47:32.120Z,7.40
2019-05-28T21:50:01.335Z,7.40
2019-05-28T21:52:30.874Z,7.50
2019-05-28T21:54:59.701Z,7.50
2019-05-28T21:57:28.498Z,7.50
2019-05-28T21:59:57.945Z,7.40
2019-05-28T22:02:29.617Z,7.60
2019-05-28T22:05:02.057Z,7.50
2019-05-28T22:07:28.910Z,7.40
2019-05-28T22:09:57.762Z,7.30
2019-05-28T22:12:26.554Z,7.40
2019-05-28T22:14:55.928Z,7.40
2019-05-28T22:17:24.781Z,7.30
2019-05-28T22:19:53.645Z,7.40
2019-05-28T22:22:22.438Z,7.40
2019-05-28T22:24:51.176Z,7.40
2019-05-28T22:27:20.019Z,7.40
2019-05-28T22:29:48.870Z,7.30
2019-05-28T22:32:17.685Z,7.30
2019-05-28T22:34:46.515Z,7.30
2019-05-28T22:37:15.730Z,7.30
2019-05-28T22:39:44.522Z,7.30
2019-05-28T22:42:13.304Z,7.30
2019-05-28T22:44:42.068Z,7.30
2019-05-28T22:47:10.858Z,7.30
2019-05-28T22:49:39.702Z,7.30
2019-05-28T22:52:08.499Z,7.30
2019-05-28T22:54:37.299Z,7.30
2019-05-28T22:57:06.879Z,7.20
2019-05-28T22:59:36.478Z,7.20
2019-05-28T23:02:06.920Z,7.20
2019-05-28T23:04:36.356Z,7.10
2019-05-28T23:07:07.381Z,7.00
2019-05-28T23:09:35.598Z,7.00
2019-05-28T23:12:04.830Z,7.00
2019-05-28T23:14:34.891Z,6.90
2019-05-28T23:17:04.914Z,6.70
2019-05-28T23:19:33.740Z,6.70
2019-05-28T23:22:02.863Z,6.60
2019-05-28T23:24:31.901Z,6.50
2019-05-28T23:27:01.322Z,6.40
2019-05-28T23:29:30.175Z,6.40
2019-05-28T23:31:59.020Z,6.40
2019-05-28T23:34:29.097Z,6.30
2019-05-28T23:36:57.824Z,6.10
2019-05-28T23:39:26.623Z,6.20
2019-05-28T23:41:55.412Z,6.20
2019-05-28T23:44:24.421Z,6.10
2019-05-28T23:46:53.191Z,6.00
2019-05-28T23:49:21.993Z,5.90
2019-05-28T23:51:50.732Z,5.80
2019-05-28T23:54:19.874Z,5.70
2019-05-28T23:56:48.965Z,5.60
2019-05-28T23:59:18.016Z,5.50
